createdAt,value
2019-06-07T00:00:40.503Z,82.22
2019-06-07T00:03:23.975Z,82.22
2019-06-07T00:05:46.619Z,82.60
2019-06-07T00:08:24.947Z,82.39
2019-06-07T00:10:53.971Z,82.24
2019-06-07T00:13:25.023Z,82.07
2019-06-07T00:15:56.082Z,82.14
2019-06-07T00:18:26.346Z,82.37
2019-06-07T00:20:58.463Z,82.70
2019-06-07T00:23:30.112Z,82.99
2019-06-07T00:26:00.966Z,82.52
2019-06-07T00:28:35.280Z,82.79
2019-06-07T00:31:11.394Z,82.44
2019-06-07T00:33:44.538Z,82.66
2019-06-07T00:36:20.707Z,82.70
2019-06-07T00:38:53.647Z,83.07
2019-06-07T00:41:23.614Z,83.16
2019-06-07T00:44:00.086Z,83.13
2019-06-07T00:46:45.878Z,82.46
2019-06-07T00:49:34.876Z,82.81
2019-06-07T00:51:53.831Z,83.09
2019-06-07T00:54:25.314Z,83.19
2019-06-07T00:57:02.586Z,82.70
2019-06-07T00:59:36.451Z,83.25
2019-06-07T01:02:06.913Z,83.30
2019-06-07T01:04:38.517Z,83.11
2019-06-07T01:07:08.986Z,83.29
2019-06-07T01:09:53.565Z,83.17
2019-06-07T01:12:26.652Z,82.96
2019-06-07T01:15:01.048Z,82.86
2019-06-07T01:17:49.987Z,83.14
2019-06-07T01:20:22.787Z,83.46
2019-06-07T01:22:55.367Z,83.10
2019-06-07T01:25:34.211Z,83.07
2019-06-07T01:28:04.982Z,82.91
2019-06-07T01:30:36.677Z,82.84
2019-06-07T01:33:10.645Z,82.58
2019-06-07T01:35:43.937Z,82.40
2019-06-07T01:38:13.973Z,82.08
2019-06-07T01:40:44.739Z,82.04
2019-06-07T01:43:31.006Z,82.62
2019-06-07T01:46:16.074Z,82.40
2019-06-07T01:48:54.067Z,81.90
2019-06-07T01:51:27.918Z,81.91
2019-06-07T01:54:48.836Z,81.96
2019-06-07T01:56:37.024Z,81.84
2019-06-07T01:59:13.456Z,81.85
2019-06-07T02:01:44.135Z,81.41
2019-06-07T02:04:21.581Z,81.31
2019-06-07T02:06:55.209Z,82.29
2019-06-07T02:09:31.566Z,82.42
2019-06-07T02:11:59.890Z,82.11
2019-06-07T02:14:39.160Z,82.85
2019-06-07T02:17:30.934Z,82.41
2019-06-07T02:20:05.319Z,82.44
2019-06-07T02:22:46.861Z,83.11
2019-06-07T02:25:48.713Z,82.96
2019-06-07T02:28:26.742Z,82.58
2019-06-07T02:30:44.930Z,82.93
2019-06-07T02:33:08.316Z,82.33
2019-06-07T02:35:40.922Z,82.64
2019-06-07T02:38:17.160Z,82.52
2019-06-07T02:40:48.025Z,81.99
2019-06-07T02:43:36.250Z,82.13
2019-06-07T02:46:25.130Z,82.19
2019-06-07T02:48:40.631Z,82.09
2019-06-07T02:51:12.776Z,82.16
2019-06-07T02:53:45.416Z,81.72
2019-06-07T02:58:48.204Z,81.98
2019-06-07T03:01:22.464Z,81.95
2019-06-07T03:03:53.556Z,81.98
2019-06-07T03:06:29.662Z,82.12
2019-06-07T03:08:57.666Z,81.94
2019-06-07T03:11:32.330Z,82.22
2019-06-07T03:14:04.092Z,82.34
2019-06-07T03:16:46.306Z,82.50
2019-06-07T03:19:37.297Z,82.82
2019-06-07T03:22:17.685Z,83.25
2019-06-07T03:31:20.952Z,83.05
2019-06-07T03:33:50.764Z,82.89
2019-06-07T03:36:32.138Z,82.82
2019-06-07T03:39:02.043Z,82.49
2019-06-07T03:41:49.915Z,82.78
2019-06-07T03:44:16.065Z,82.58
2019-06-07T03:46:48.134Z,82.13
2019-06-07T03:49:20.841Z,82.16
2019-06-07T03:51:53.997Z,82.24
2019-06-07T03:54:27.256Z,82.29
2019-06-07T03:56:57.065Z,82.29
2019-06-07T03:59:36.212Z,81.96
2019-06-07T04:02:12.896Z,82.25
2019-06-07T04:04:42.881Z,82.58
2019-06-07T04:07:12.748Z,82.98
2019-06-07T04:09:51.773Z,83.18
2019-06-07T04:12:23.124Z,82.71
2019-06-07T04:14:56.784Z,82.26
2019-06-07T04:17:33.776Z,82.61
2019-06-07T04:20:07.141Z,82.25
2019-06-07T04:22:40.490Z,82.12
2019-06-07T04:25:22.126Z,81.84
2019-06-07T04:27:56.019Z,81.52
2019-06-07T04:31:04.509Z,81.83
2019-06-07T04:33:39.752Z,81.64
2019-06-07T04:36:08.784Z,81.21
2019-06-07T04:38:42.944Z,81.54
2019-06-07T04:41:15.359Z,81.41
2019-06-07T04:43:49.343Z,81.38
2019-06-07T04:46:25.372Z,81.10
2019-06-07T04:48:58.709Z,80.80
2019-06-07T04:51:31.939Z,80.89
2019-06-07T04:54:03.562Z,81.11
2019-06-07T04:56:43.764Z,80.98
2019-06-07T04:59:10.059Z,81.18
2019-06-07T05:01:42.631Z,80.58
2019-06-07T05:04:11.474Z,80.37
2019-06-07T05:06:44.762Z,80.49
2019-06-07T05:09:14.282Z,81.12
2019-06-07T05:11:45.031Z,80.86
2019-06-07T05:14:14.826Z,80.61
2019-06-07T05:16:44.917Z,79.98
2019-06-07T05:19:14.612Z,79.98
2019-06-07T05:22:02.456Z,79.85
2019-06-07T05:24:17.220Z,80.04
2019-06-07T05:26:47.539Z,79.77
2019-06-07T05:29:17.754Z,79.54
2019-06-07T05:31:50.676Z,79.32
2019-06-07T05:34:20.427Z,79.31
2019-06-07T05:37:11.177Z,79.42
2019-06-07T05:39:26.168Z,78.98
2019-06-07T05:42:01.911Z,79.00
2019-06-07T05:44:32.226Z,78.95
2019-06-07T05:47:02.066Z,79.11
2019-06-07T05:49:32.932Z,78.76
2019-06-07T05:52:04.201Z,78.67
2019-06-07T05:54:35.131Z,79.00
2019-06-07T05:57:06.143Z,79.12
2019-06-07T05:59:38.298Z,78.89
2019-06-07T06:02:21.821Z,78.89
2019-06-07T06:04:45.832Z,78.67
2019-06-07T06:07:12.432Z,78.88
2019-06-07T06:09:43.194Z,78.96
2019-06-07T06:12:33.405Z,78.91
2019-06-07T06:14:47.082Z,78.91
2019-06-07T06:17:17.347Z,78.64
2019-06-07T06:19:52.403Z,78.45
2019-06-07T06:22:18.502Z,78.54
2019-06-07T06:25:28.821Z,78.34
2019-06-07T06:28:02.553Z,78.89
2019-06-07T06:29:52.472Z,79.30
2019-06-07T06:34:55.972Z,79.03
2019-06-07T06:37:25.587Z,79.36
2019-06-07T06:39:56.662Z,78.94
2019-06-07T06:42:26.291Z,79.29
2019-06-07T06:44:56.039Z,79.66
2019-06-07T06:47:25.813Z,79.41
2019-06-07T06:49:55.708Z,78.95
2019-06-07T06:52:26.179Z,78.51
2019-06-07T06:55:00.778Z,78.22
2019-06-07T06:57:27.827Z,78.28
2019-06-07T06:59:59.399Z,78.07
2019-06-07T07:02:31.459Z,77.33
2019-06-07T07:05:01.406Z,78.32
2019-06-07T07:07:31.621Z,79.00
2019-06-07T07:10:03.172Z,78.57
2019-06-07T07:12:33.422Z,78.23
2019-06-07T07:15:03.997Z,77.86
2019-06-07T07:17:50.472Z,78.49
2019-06-07T07:20:08.814Z,78.37
2019-06-07T07:22:39.790Z,78.14
2019-06-07T07:25:10.160Z,78.08
2019-06-07T07:27:40.602Z,77.87
2019-06-07T07:30:36.263Z,77.61
2019-06-07T07:32:45.560Z,77.31
2019-06-07T07:35:13.737Z,76.76
2019-06-07T07:37:43.746Z,76.50
2019-06-07T07:40:56.302Z,76.07
2019-06-07T07:42:47.547Z,75.88
2019-06-07T07:45:17.521Z,75.67
2019-06-07T07:48:03.428Z,75.10
2019-06-07T07:50:18.816Z,74.36
2019-06-07T07:52:53.464Z,73.98
2019-06-07T07:55:19.970Z,73.86
2019-06-07T07:57:58.076Z,74.00
2019-06-07T08:00:50.377Z,73.88
2019-06-07T08:02:58.702Z,73.79
2019-06-07T08:05:41.964Z,73.43
2019-06-07T08:08:01.621Z,73.51
2019-06-07T08:10:28.719Z,73.25
2019-06-07T08:13:22.124Z,73.23
2019-06-07T08:15:29.922Z,73.27
2019-06-07T08:18:03.855Z,73.07
2019-06-07T08:20:30.675Z,72.97
2019-06-07T08:23:01.323Z,72.93
2019-06-07T08:25:31.264Z,73.02
2019-06-07T08:28:01.186Z,72.89
2019-06-07T08:30:50.500Z,72.67
2019-06-07T08:33:24.807Z,72.47
2019-06-07T08:38:24.128Z,72.37
2019-06-07T08:40:37.869Z,72.37
2019-06-07T08:43:19.629Z,72.02
2019-06-07T08:45:39.886Z,72.62
2019-06-07T08:48:27.026Z,72.20
2019-06-07T08:50:40.850Z,72.40
2019-06-07T08:53:12.097Z,72.67
2019-06-07T08:55:42.064Z,72.69
2019-06-07T08:58:13.393Z,73.04
2019-06-07T09:00:47.996Z,73.23
2019-06-07T09:03:19.629Z,73.53
2019-06-07T09:05:53.416Z,73.82
2019-06-07T09:08:29.802Z,73.80
2019-06-07T09:10:59.537Z,73.90
2019-06-07T09:13:29.544Z,73.60
2019-06-07T09:16:04.863Z,73.56
2019-06-07T09:18:43.180Z,73.31
2019-06-07T09:21:09.054Z,73.09
2019-06-07T09:23:37.359Z,73.13
2019-06-07T09:26:18.296Z,73.26
2019-06-07T09:28:43.216Z,73.17
2019-06-07T09:31:13.189Z,72.99
2019-06-07T09:33:43.466Z,72.62
2019-06-07T09:36:13.735Z,73.59
2019-06-07T09:38:44.830Z,71.44
2019-06-07T09:41:14.838Z,70.11
2019-06-07T09:44:09.948Z,69.53
2019-06-07T09:46:18.451Z,68.85
2019-06-07T09:51:21.799Z,68.92
2019-06-07T09:53:52.949Z,68.97
2019-06-07T09:56:23.945Z,69.15
2019-06-07T09:58:54.450Z,69.00
2019-06-07T10:01:25.079Z,68.65
2019-06-07T10:03:54.911Z,68.89
2019-06-07T10:06:25.725Z,68.63
2019-06-07T10:11:29.199Z,67.58
2019-06-07T10:14:02.406Z,66.73
2019-06-07T10:16:45.963Z,66.42
2019-06-07T10:19:05.637Z,66.29
2019-06-07T10:21:35.733Z,66.05
2019-06-07T10:24:05.616Z,65.75
2019-06-07T10:26:37.747Z,65.85
2019-06-07T10:29:09.086Z,65.66
2019-06-07T10:31:40.491Z,65.60
2019-06-07T10:34:10.866Z,65.42
2019-06-07T10:36:42.684Z,65.55
2019-06-07T10:39:13.396Z,65.25
2019-06-07T10:41:43.357Z,65.30
2019-06-07T10:44:13.220Z,65.26
2019-06-07T10:46:43.038Z,65.25
2019-06-07T10:49:13.942Z,65.25
2019-06-07T10:51:45.622Z,65.30
2019-06-07T10:54:27.878Z,64.81
2019-06-07T10:56:48.402Z,65.36
2019-06-07T10:59:20.406Z,65.18
2019-06-07T11:01:51.013Z,64.12
2019-06-07T11:04:21.898Z,63.90
2019-06-07T11:06:51.656Z,63.63
2019-06-07T11:09:21.314Z,63.33
2019-06-07T11:11:51.006Z,62.52
2019-06-07T11:14:21.343Z,62.08
2019-06-07T11:16:52.620Z,62.04
2019-06-07T11:19:22.219Z,60.72
2019-06-07T11:21:52.944Z,60.89
2019-06-07T11:24:24.742Z,59.92
2019-06-07T11:26:56.130Z,59.13
2019-06-07T11:29:26.016Z,59.93
2019-06-07T11:31:55.691Z,60.22
2019-06-07T11:34:29.113Z,59.59
2019-06-07T11:36:59.839Z,59.84
2019-06-07T11:39:29.669Z,59.21
2019-06-07T11:42:00.135Z,58.85
2019-06-07T11:44:29.777Z,59.37
2019-06-07T11:47:01.402Z,58.69
2019-06-07T11:49:32.776Z,58.69
2019-06-07T11:52:03.583Z,58.33
2019-06-07T11:54:34.105Z,58.14
2019-06-07T11:57:05.109Z,58.10
2019-06-07T11:59:34.744Z,57.59
2019-06-07T12:02:07.107Z,56.78
2019-06-07T12:04:36.754Z,56.72
2019-06-07T12:07:10.171Z,56.32
2019-06-07T12:09:38.089Z,56.18
2019-06-07T12:12:10.342Z,55.74
2019-06-07T12:14:40.454Z,56.04
2019-06-07T12:17:11.256Z,55.99
2019-06-07T12:19:43.434Z,55.75
2019-06-07T12:22:14.216Z,55.94
2019-06-07T12:24:44.445Z,55.76
2019-06-07T12:27:14.772Z,55.65
2019-06-07T12:29:44.566Z,55.83
2019-06-07T12:32:15.354Z,55.63
2019-06-07T12:34:45.455Z,55.93
2019-06-07T12:37:19.338Z,56.12
2019-06-07T12:39:47.863Z,56.47
2019-06-07T12:42:18.527Z,55.96
2019-06-07T12:44:48.508Z,55.92
2019-06-07T12:47:18.917Z,55.20
2019-06-07T12:49:51.770Z,54.02
2019-06-07T12:52:22.993Z,54.43
2019-06-07T12:54:53.463Z,53.41
2019-06-07T12:57:24.238Z,53.72
2019-06-07T12:59:54.407Z,52.76
2019-06-07T13:02:25.562Z,51.05
2019-06-07T13:04:56.786Z,49.90
2019-06-07T13:07:28.705Z,50.04
2019-06-07T13:09:58.614Z,48.72
2019-06-07T13:12:29.258Z,48.31
2019-06-07T13:15:01.773Z,47.32
2019-06-07T13:17:31.738Z,46.92
2019-06-07T13:20:02.587Z,46.31
2019-06-07T13:22:33.183Z,46.47
2019-06-07T13:25:03.059Z,45.99
2019-06-07T13:27:34.309Z,46.51
2019-06-07T13:30:10.320Z,46.71
2019-06-07T13:32:38.113Z,46.89
2019-06-07T13:35:08.671Z,48.32
2019-06-07T13:37:38.717Z,48.17
2019-06-07T13:40:08.781Z,47.13
2019-06-07T13:42:38.640Z,46.82
2019-06-07T13:45:09.255Z,47.17
2019-06-07T13:47:41.125Z,46.90
2019-06-07T13:50:10.993Z,46.10
2019-06-07T13:52:42.098Z,45.23
2019-06-07T13:55:12.189Z,44.30
2019-06-07T13:57:44.135Z,45.09
2019-06-07T14:00:14.995Z,44.06
2019-06-07T14:02:44.595Z,44.68
2019-06-07T14:05:15.849Z,44.75
2019-06-07T14:07:46.682Z,44.13
2019-06-07T14:10:17.147Z,44.37
2019-06-07T14:12:49.751Z,44.47
2019-06-07T14:15:20.472Z,44.92
2019-06-07T14:17:52.121Z,44.66
2019-06-07T14:20:26.783Z,44.63
2019-06-07T14:22:58.945Z,45.31
2019-06-07T14:25:31.963Z,45.12
2019-06-07T14:28:09.370Z,44.71
2019-06-07T14:30:35.998Z,44.80
2019-06-07T14:33:06.354Z,45.00
2019-06-07T14:35:42.530Z,44.02
2019-06-07T14:38:13.260Z,45.01
2019-06-07T14:40:45.915Z,45.12
2019-06-07T14:43:27.665Z,44.59
2019-06-07T14:46:00.816Z,44.09
2019-06-07T14:48:30.564Z,44.05
2019-06-07T14:51:03.812Z,43.71
2019-06-07T14:53:39.407Z,43.34
2019-06-07T14:56:10.263Z,43.92
2019-06-07T14:58:43.493Z,44.00
2019-06-07T15:01:22.684Z,43.95
2019-06-07T15:03:53.124Z,44.03
2019-06-07T15:06:24.271Z,44.04
2019-06-07T15:09:01.674Z,43.85
2019-06-07T15:11:43.999Z,43.75
2019-06-07T15:14:16.882Z,44.03
2019-06-07T15:16:48.267Z,44.09
2019-06-07T15:19:24.160Z,43.88
2019-06-07T15:21:56.596Z,43.82
2019-06-07T15:24:26.181Z,42.35
2019-06-07T15:26:55.942Z,40.63
2019-06-07T15:29:25.845Z,39.38
2019-06-07T15:31:55.868Z,38.34
2019-06-07T15:34:25.779Z,38.51
2019-06-07T15:36:56.817Z,38.49
2019-06-07T15:39:28.408Z,36.89
2019-06-07T15:41:58.467Z,35.36
2019-06-07T15:44:29.097Z,34.24
2019-06-07T15:46:58.907Z,34.59
2019-06-07T15:49:30.300Z,35.78
2019-06-07T15:52:00.234Z,36.20
2019-06-07T15:54:30.242Z,36.07
2019-06-07T15:57:01.338Z,35.96
2019-06-07T15:59:31.116Z,36.25
2019-06-07T16:02:00.729Z,36.12
2019-06-07T16:04:31.346Z,35.61
2019-06-07T16:07:04.595Z,36.30
2019-06-07T16:09:34.389Z,37.29
2019-06-07T16:12:04.684Z,37.52
2019-06-07T16:14:35.118Z,36.68
2019-06-07T16:17:05.023Z,37.25
2019-06-07T16:19:39.304Z,38.62
2019-06-07T16:22:06.419Z,39.81
2019-06-07T16:24:37.690Z,40.17
2019-06-07T16:27:07.749Z,41.41
2019-06-07T16:29:38.646Z,41.77
2019-06-07T16:32:08.703Z,40.83
2019-06-07T16:34:39.884Z,40.32
2019-06-07T16:37:11.103Z,40.73
2019-06-07T16:39:40.855Z,41.28
2019-06-07T16:42:10.761Z,42.22
2019-06-07T16:44:40.886Z,42.89
2019-06-07T16:47:10.766Z,42.86
2019-06-07T16:49:42.956Z,42.59
2019-06-07T16:52:13.158Z,43.11
2019-06-07T16:54:43.600Z,43.98
2019-06-07T16:57:14.322Z,44.61
2019-06-07T16:59:47.775Z,44.61
2019-06-07T17:02:15.748Z,44.84
2019-06-07T17:04:45.801Z,45.32
2019-06-07T17:07:15.630Z,45.33
2019-06-07T17:09:47.324Z,45.41
2019-06-07T17:12:17.436Z,45.84
2019-06-07T17:14:48.823Z,46.25
2019-06-07T17:17:18.713Z,46.64
2019-06-07T17:19:49.283Z,46.66
2019-06-07T17:22:19.080Z,46.95
2019-06-07T17:24:49.909Z,46.87
2019-06-07T17:27:19.651Z,47.48
2019-06-07T17:29:51.580Z,47.85
2019-06-07T17:32:21.854Z,48.21
2019-06-07T17:34:52.549Z,48.39
2019-06-07T17:37:25.213Z,48.22
2019-06-07T17:39:55.270Z,48.21
2019-06-07T17:42:25.101Z,48.72
2019-06-07T17:44:57.890Z,48.47
2019-06-07T17:47:29.235Z,48.61
2019-06-07T17:49:59.909Z,49.15
2019-06-07T17:52:29.685Z,50.09
2019-06-07T17:54:59.969Z,50.49
2019-06-07T17:57:30.904Z,50.46
2019-06-07T18:00:27.106Z,50.69
2019-06-07T18:02:32.267Z,50.64
2019-06-07T18:05:02.813Z,50.76
2019-06-07T18:07:33.866Z,50.93
2019-06-07T18:10:05.653Z,51.26
2019-06-07T18:12:35.490Z,51.91
2019-06-07T18:15:16.131Z,52.41
2019-06-07T18:17:48.548Z,52.92
2019-06-07T18:20:27.412Z,53.12
2019-06-07T18:23:00.059Z,54.03
2019-06-07T18:25:30.462Z,54.21
2019-06-07T18:28:04.668Z,55.04
2019-06-07T18:30:36.914Z,54.63
2019-06-07T18:33:10.523Z,54.64
2019-06-07T18:35:43.281Z,54.52
2019-06-07T18:38:16.148Z,54.66
2019-06-07T18:40:47.151Z,54.46
2019-06-07T18:43:18.222Z,54.23
2019-06-07T18:45:51.482Z,54.34
2019-06-07T18:48:25.246Z,54.34
2019-06-07T18:50:59.063Z,54.68
2019-06-07T18:53:37.110Z,54.06
2019-06-07T18:56:09.421Z,53.57
2019-06-07T18:58:40.342Z,53.68
2019-06-07T19:01:13.142Z,53.82
2019-06-07T19:03:42.758Z,53.88
2019-06-07T19:06:13.010Z,54.17
2019-06-07T19:08:48.435Z,54.16
2019-06-07T19:11:21.762Z,54.66
2019-06-07T19:13:52.988Z,54.61
2019-06-07T19:16:25.960Z,54.47
2019-06-07T19:19:03.379Z,54.41
2019-06-07T19:21:35.924Z,55.05
2019-06-07T19:24:06.393Z,54.82
2019-06-07T19:26:37.700Z,55.00
2019-06-07T19:29:07.728Z,54.65
2019-06-07T19:31:38.226Z,54.37
2019-06-07T19:34:08.091Z,54.37
2019-06-07T19:36:51.510Z,54.52
2019-06-07T19:39:24.001Z,54.62
2019-06-07T19:41:54.289Z,54.51
2019-06-07T19:44:25.774Z,55.21
2019-06-07T19:47:00.618Z,55.29
2019-06-07T19:49:30.463Z,55.53
2019-06-07T19:52:07.725Z,55.48
2019-06-07T19:54:41.128Z,54.51
2019-06-07T19:57:12.480Z,54.54
2019-06-07T19:59:45.194Z,54.52
2019-06-07T20:02:20.128Z,54.37
2019-06-07T20:04:51.172Z,54.25
2019-06-07T20:07:21.038Z,54.30
2019-06-07T20:09:52.400Z,54.45
2019-06-07T20:12:24.089Z,54.72
2019-06-07T20:15:17.517Z,54.92
2019-06-07T20:17:31.137Z,54.91
2019-06-07T20:20:02.845Z,55.50
2019-06-07T20:22:32.436Z,55.47
2019-06-07T20:25:03.176Z,55.38
2019-06-07T20:27:33.271Z,55.69
2019-06-07T20:30:04.400Z,55.59
2019-06-07T20:32:34.846Z,55.57
2019-06-07T20:35:06.086Z,56.01
2019-06-07T20:37:37.675Z,56.47
2019-06-07T20:40:22.765Z,56.36
2019-06-07T20:42:43.825Z,56.45
2019-06-07T20:45:15.121Z,56.46
2019-06-07T20:47:47.344Z,56.82
2019-06-07T20:50:17.407Z,56.75
2019-06-07T20:52:48.245Z,56.86
2019-06-07T20:55:19.263Z,56.73
2019-06-07T20:57:50.630Z,56.71
2019-06-07T21:00:22.075Z,56.73
2019-06-07T21:02:54.664Z,56.79
2019-06-07T21:05:24.409Z,56.75
2019-06-07T21:07:54.234Z,56.91
2019-06-07T21:10:26.500Z,56.84
2019-06-07T21:12:59.697Z,56.64
2019-06-07T21:15:31.167Z,56.75
2019-06-07T21:18:08.667Z,56.72
2019-06-07T21:20:36.643Z,56.86
2019-06-07T21:23:07.094Z,56.93
2019-06-07T21:25:41.504Z,56.81
2019-06-07T21:28:14.274Z,56.97
2019-06-07T21:30:44.787Z,57.09
2019-06-07T21:33:15.491Z,57.21
2019-06-07T21:35:45.102Z,57.26
2019-06-07T21:38:20.768Z,57.33
2019-06-07T21:40:57.654Z,57.42
2019-06-07T21:43:28.579Z,57.44
2019-06-07T21:46:05.443Z,57.40
2019-06-07T21:48:38.709Z,57.16
2019-06-07T21:51:12.719Z,57.09
2019-06-07T21:53:45.791Z,57.17
2019-06-07T21:56:17.335Z,56.94
2019-06-07T21:58:47.870Z,56.86
2019-06-07T22:01:37.014Z,56.71
2019-06-07T22:04:09.657Z,56.44
2019-06-07T22:06:44.462Z,56.37
2019-06-07T22:09:21.907Z,56.36
2019-06-07T22:11:55.614Z,56.29
2019-06-07T22:14:32.572Z,56.14
2019-06-07T22:17:04.324Z,56.13
2019-06-07T22:19:54.704Z,56.12
2019-06-07T22:22:32.566Z,56.55
2019-06-07T22:25:03.360Z,56.86
2019-06-07T22:27:36.806Z,56.55
2019-06-07T22:30:12.605Z,56.28
2019-06-07T22:32:45.666Z,56.36
2019-06-07T22:35:17.615Z,56.22
2019-06-07T22:37:52.473Z,56.14
2019-06-07T22:40:24.184Z,56.15
2019-06-07T22:42:54.533Z,56.09
2019-06-07T22:45:34.149Z,55.98
2019-06-07T22:48:05.133Z,56.16
2019-06-07T22:50:36.518Z,56.35
2019-06-07T22:53:07.360Z,56.30
2019-06-07T22:55:43.779Z,56.55
2019-06-07T22:58:18.988Z,56.82
2019-06-07T23:00:50.746Z,57.45
2019-06-07T23:03:23.437Z,58.23
2019-06-07T23:05:53.721Z,58.59
2019-06-07T23:08:24.694Z,59.35
2019-06-07T23:10:56.727Z,59.86
2019-06-07T23:13:29.633Z,60.50
2019-06-07T23:16:01.633Z,61.09
2019-06-07T23:18:32.280Z,61.49
2019-06-07T23:21:02.053Z,61.61
2019-06-07T23:23:32.617Z,61.68
2019-06-07T23:26:02.882Z,61.03
2019-06-07T23:28:33.191Z,60.61
2019-06-07T23:31:04.902Z,60.42
2019-06-07T23:33:35.873Z,60.92
2019-06-07T23:36:07.814Z,61.00
2019-06-07T23:38:43.199Z,60.82
2019-06-07T23:41:15.603Z,61.49
2019-06-07T23:43:50.317Z,62.09
2019-06-07T23:46:21.727Z,62.54
2019-06-07T23:48:52.612Z,63.04
2019-06-07T23:51:24.665Z,63.45
2019-06-07T23:53:57.051Z,63.85
2019-06-07T23:56:29.669Z,63.96
2019-06-07T23:59:01.933Z,64.06
